Time;durP1;ratioP1;P1;durP2;ratioP2;P2;SDS_P1;SDS_P2;PMS_P1;PMS_P2;Temp;Humidity;BMP_temperature;BMP_pressure;BME280_temperature;BME280_humidity;BME280_pressure;Samples;Min_cycle;Max_cycle;Signal;HPM_P1;HPM_P2
2022/02/01 00:02:04;;;;;;;13.75;3.67;;;10.00;69.20;;;;;;5029819;28;20087;-78
2022/02/01 00:10:07;;;;;;;10.27;4.07;;;10.00;69.30;;;;;;5029782;28;20403;-77
2022/02/01 00:20:37;;;;;;;10.38;3.58;;;10.00;69.30;;;;;;5029892;28;20112;-77
2022/02/01 00:34:34;;;;;;;10.50;2.83;;;10.00;69.40;;;;;;5009311;28;20092;-76
2022/02/01 00:37:03;;;;;;;13.30;3.10;;;10.00;69.40;;;;;;4992258;28;20057;-77
2022/02/01 00:39:31;;;;;;;14.63;3.78;;;10.00;69.50;;;;;;5009373;28;20061;-77
2022/02/01 00:41:58;;;;;;;10.68;3.70;;;10.00;69.50;;;;;;5008942;28;20669;-77
2022/02/01 00:44:25;;;;;;;11.50;3.08;;;10.00;69.50;;;;;;5009474;28;20371;-78
2022/02/01 00:46:51;;;;;;;9.48;2.88;;;10.00;69.60;;;;;;5008127;28;20046;-76
2022/02/01 00:49:18;;;;;;;11.45;2.55;;;10.00;69.60;;;;;;5009723;28;20145;-77
2022/02/01 00:51:44;;;;;;;11.20;3.10;;;10.00;69.60;;;;;;5009328;28;20037;-78
2022/02/01 00:54:11;;;;;;;11.43;3.00;;;10.00;69.60;;;;;;5009414;28;20531;-77
2022/02/01 00:56:37;;;;;;;14.50;3.60;;;10.00;69.70;;;;;;4991796;28;20033;-77
2022/02/01 00:59:03;;;;;;;10.55;3.58;;;10.00;69.70;;;;;;5009821;28;20036;-77
2022/02/01 01:01:29;;;;;;;7.38;2.70;;;10.00;69.70;;;;;;5009974;28;20117;-77
2022/02/01 01:03:55;;;;;;;11.23;3.58;;;10.00;69.70;;;;;;5009783;28;20041;-76
2022/02/01 01:06:21;;;;;;;10.50;2.70;;;10.00;69.70;;;;;;5010303;28;20094;-77
2022/02/01 01:08:47;;;;;;;12.27;2.90;;;10.00;69.70;;;;;;5008309;28;20022;-77
2022/02/01 01:11:14;;;;;;;9.35;2.90;;;10.10;70.00;;;;;;5013295;28;20037;-77
2022/02/01 01:54:18;;;;;;;10.07;2.78;;;10.10;70.10;;;;;;5029735;28;20025;-76
2022/02/01 01:56:45;;;;;;;12.68;2.85;;;10.10;70.00;;;;;;5029616;28;20045;-76
2022/02/01 01:59:12;;;;;;;10.35;3.05;;;10.10;70.10;;;;;;5028442;28;20113;-77
2022/02/01 02:01:39;;;;;;;10.88;2.55;;;10.10;70.00;;;;;;5022875;28;20392;-77
2022/02/01 02:04:08;;;;;;;9.85;2.70;;;10.10;70.10;;;;;;5027926;28;20503;-77
2022/02/01 02:06:37;;;;;;;9.40;3.20;;;10.10;70.10;;;;;;5028081;28;20496;-77
2022/02/01 02:09:07;;;;;;;14.10;3.65;;;10.10;70.10;;;;;;5028076;28;20029;-77
2022/02/01 02:14:32;;;;;;;7.20;2.22;;;10.10;70.10;;;;;;5005336;28;20475;-77
2022/02/01 02:17:01;;;;;;;9.15;2.92;;;10.20;70.30;;;;;;5028616;28;20040;-76
2022/02/01 02:19:29;;;;;;;11.13;2.63;;;10.10;70.10;;;;;;5029339;28;20061;-76
2022/02/01 02:22:00;;;;;;;13.15;3.10;;;10.20;70.20;;;;;;5027969;28;20033;-77
2022/02/01 02:24:33;;;;;;;8.27;2.22;;;10.10;70.10;;;;;;5009870;28;20029;-77
2022/02/01 02:27:00;;;;;;;10.88;3.05;;;10.20;70.20;;;;;;5010264;28;20553;-76
2022/02/01 02:29:28;;;;;;;12.20;2.83;;;10.20;70.20;;;;;;5027999;28;20045;-77
2022/02/01 02:31:56;;;;;;;9.80;3.50;;;10.20;70.20;;;;;;5027396;28;20033;-76
2022/02/01 02:34:22;;;;;;;8.30;2.47;;;10.20;70.20;;;;;;5009763;28;20095;-76
2022/02/01 02:37:00;;;;;;;8.18;2.42;;;10.30;70.40;;;;;;5027854;28;20400;-77
2022/02/01 02:39:33;;;;;;;10.45;2.50;;;10.20;70.20;;;;;;5010278;28;20079;-77
2022/02/01 02:47:18;;;;;;;14.50;3.30;;;10.30;70.20;;;;;;5054906;22;20057;-79
2022/02/01 02:49:45;;;;;;;14.88;3.03;;;10.20;70.10;;;;;;5050585;28;20066;-80
2022/02/01 02:52:11;;;;;;;15.82;3.45;;;10.30;70.30;;;;;;5049231;28;20029;-79
2022/02/01 02:54:37;;;;;;;14.13;3.17;;;10.30;70.30;;;;;;5050416;28;20157;-80
2022/02/01 02:57:06;;;;;;;11.75;2.78;;;10.30;70.30;;;;;;5050412;28;20071;-81
2022/02/01 02:59:32;;;;;;;8.95;2.58;;;10.20;70.20;;;;;;5049083;28;20033;-81
2022/02/01 03:02:00;;;;;;;11.15;2.35;;;10.30;70.30;;;;;;5050517;28;20025;-80
2022/02/01 03:04:29;;;;;;;8.55;2.30;;;10.30;70.40;;;;;;5050540;28;20025;-79
2022/02/01 03:06:57;;;;;;;11.48;3.58;;;10.30;70.40;;;;;;5050683;28;20060;-80
2022/02/01 03:09:25;;;;;;;8.25;2.40;;;10.30;70.30;;;;;;5050907;28;20372;-80
2022/02/01 03:11:54;;;;;;;16.13;3.33;;;10.30;70.30;;;;;;5054838;28;20036;-80
2022/02/01 03:17:10;;;;;;;11.95;3.05;;;10.30;70.30;;;;;;5036481;28;20044;-80
2022/02/01 03:19:55;;;;;;;12.88;3.50;;;10.30;70.30;;;;;;5053982;28;20137;-80
2022/02/01 03:22:27;;;;;;;12.50;3.25;;;10.30;70.30;;;;;;5035857;28;20468;-80
2022/02/01 03:24:56;;;;;;;14.63;2.92;;;10.30;70.30;;;;;;5053572;28;20568;-80
2022/02/01 03:27:23;;;;;;;19.35;3.72;;;10.30;70.30;;;;;;5035517;28;20514;-79
2022/02/01 03:29:51;;;;;;;10.07;2.72;;;10.30;70.30;;;;;;5053931;28;20053;-79
2022/02/01 03:32:20;;;;;;;16.05;4.30;;;10.30;70.40;;;;;;5053931;28;20036;-79
2022/02/01 03:34:47;;;;;;;14.55;3.67;;;10.30;70.40;;;;;;5053801;28;20029;-79
2022/02/01 03:37:14;;;;;;;13.30;3.60;;;10.30;70.30;;;;;;5054360;28;20059;-78
2022/02/01 03:39:41;;;;;;;9.80;2.75;;;10.40;70.60;;;;;;5059371;28;20024;-79
2022/02/01 03:42:08;;;;;;;9.27;2.58;;;10.40;70.50;;;;;;5060570;28;20044;-83
2022/02/01 03:44:34;;;;;;;12.25;3.13;;;10.30;70.30;;;;;;5058217;28;20032;-83
2022/02/01 03:49:27;;;;;;;9.93;3.53;;;10.40;70.50;;;;;;5060178;28;20032;-80
2022/02/01 03:51:58;;;;;;;12.45;3.28;;;10.40;70.50;;;;;;5056502;28;20128;-81
2022/02/01 03:54:28;;;;;;;11.00;3.15;;;10.40;70.50;;;;;;5037340;28;20029;-80
2022/02/01 03:56:55;;;;;;;13.95;2.30;;;10.40;70.40;;;;;;5037504;28;20105;-80
2022/02/01 03:59:23;;;;;;;13.68;4.75;;;10.40;70.40;;;;;;5053530;28;20025;-80
2022/02/01 04:01:57;;;;;;;13.60;5.20;;;10.50;71.10;;;;;;5053435;28;20033;-80
2022/02/01 04:04:29;;;;;;;11.85;3.05;;;10.50;70.60;;;;;;5053241;28;20170;-78
2022/02/01 04:06:56;;;;;;;12.23;2.90;;;10.50;70.50;;;;;;5053030;28;20064;-80
2022/02/01 04:09:23;;;;;;;16.10;3.63;;;10.50;70.50;;;;;;5052863;28;20052;-80
2022/02/01 04:11:50;;;;;;;9.07;3.40;;;10.50;70.50;;;;;;5053222;28;20029;-80
2022/02/01 04:14:21;;;;;;;13.25;4.07;;;10.50;70.50;;;;;;5052833;28;20484;-78
2022/02/01 04:16:47;;;;;;;15.48;4.10;;;10.50;70.50;;;;;;5052779;28;20033;-80
2022/02/01 04:19:13;;;;;;;12.90;3.50;;;10.50;70.50;;;;;;5052992;28;20033;-80
2022/02/01 04:21:54;;;;;;;10.68;3.15;;;10.60;70.80;;;;;;5052478;28;20037;-79
2022/02/01 04:24:20;;;;;;;14.32;3.47;;;10.50;70.60;;;;;;5052619;28;20025;-79
2022/02/01 04:26:46;;;;;;;10.88;3.40;;;10.60;70.80;;;;;;5052911;28;20040;-79
2022/02/01 04:29:12;;;;;;;15.57;4.22;;;10.50;70.60;;;;;;5052802;28;20061;-80
2022/02/01 04:31:38;;;;;;;11.50;4.93;;;10.60;70.80;;;;;;5035088;28;20500;-81
2022/02/01 04:34:04;;;;;;;10.77;2.85;;;10.60;70.80;;;;;;5034684;28;20029;-80
2022/02/01 04:36:30;;;;;;;9.65;3.83;;;10.50;70.70;;;;;;5052475;28;20053;-80
2022/02/01 04:38:57;;;;;;;13.35;3.35;;;10.50;70.70;;;;;;5034449;28;20069;-79
2022/02/01 04:41:25;;;;;;;10.70;2.85;;;10.60;70.90;;;;;;5052603;28;20028;-79
2022/02/01 04:43:52;;;;;;;12.50;3.92;;;10.50;70.70;;;;;;5052030;28;20600;-79
2022/02/01 04:46:19;;;;;;;10.32;3.00;;;10.50;70.80;;;;;;5024566;28;20080;-79
2022/02/01 04:48:47;;;;;;;16.35;3.42;;;10.50;70.80;;;;;;5031904;28;20029;-80
2022/02/01 04:51:15;;;;;;;16.00;3.25;;;10.50;70.90;;;;;;5014365;28;20122;-81
2022/02/01 04:53:43;;;;;;;10.55;2.72;;;10.50;70.90;;;;;;5030866;28;20113;-80
2022/02/01 04:56:09;;;;;;;17.63;3.80;;;10.50;70.90;;;;;;5031901;28;20538;-83
2022/02/01 04:58:35;;;;;;;8.27;2.55;;;10.50;70.90;;;;;;5032266;28;20037;-81
2022/02/01 05:01:01;;;;;;;13.00;3.72;;;10.50;70.90;;;;;;5032063;28;20369;-81
2022/02/01 05:03:27;;;;;;;8.05;2.10;;;10.50;71.00;;;;;;5032003;28;20170;-79
2022/02/01 05:05:53;;;;;;;11.68;3.00;;;10.50;71.00;;;;;;4997530;28;20037;-79
2022/02/01 05:08:19;;;;;;;13.50;4.60;;;10.50;71.00;;;;;;5032040;28;20145;-79
2022/02/01 05:10:46;;;;;;;15.20;4.03;;;10.50;71.10;;;;;;5031765;28;20107;-78
2022/02/01 05:16:08;;;;;;;13.27;3.33;;;10.40;71.00;;;;;;5031823;28;20033;-80
2022/02/01 05:19:03;;;;;;;12.73;3.25;;;10.40;71.00;;;;;;5031421;28;20560;-79
2022/02/01 05:21:25;;;;;;;9.48;2.95;;;10.40;71.00;;;;;;5031139;28;20052;-79
2022/02/01 05:23:53;;;;;;;13.30;3.67;;;10.40;71.10;;;;;;5030384;28;20025;-78
2022/02/01 05:26:22;;;;;;;9.82;2.55;;;10.40;71.10;;;;;;5013900;28;20049;-78
2022/02/01 05:28:48;;;;;;;12.88;3.17;;;10.40;71.20;;;;;;5031199;28;20431;-79
2022/02/01 05:31:14;;;;;;;15.02;4.53;;;10.30;71.00;;;;;;5031529;28;20034;-79
2022/02/01 05:33:40;;;;;;;12.70;2.80;;;10.40;71.30;;;;;;5030762;28;20125;-80
2022/02/01 05:36:07;;;;;;;13.23;2.88;;;10.30;71.10;;;;;;5030145;28;20113;-79
2022/02/01 05:38:34;;;;;;;9.82;2.65;;;10.30;71.20;;;;;;5031394;28;20148;-80
2022/02/01 05:41:01;;;;;;;14.40;3.30;;;10.30;71.30;;;;;;5013343;28;20034;-80
2022/02/01 05:43:28;;;;;;;9.88;3.00;;;10.30;71.30;;;;;;5031133;28;20036;-79
2022/02/01 05:45:59;;;;;;;9.23;2.50;;;10.30;71.40;;;;;;5013543;28;20084;-80
2022/02/01 05:48:25;;;;;;;11.10;4.05;;;10.30;71.50;;;;;;5028832;28;20042;-82
2022/02/01 05:50:54;;;;;;;17.20;4.45;;;10.30;71.50;;;;;;5027792;28;20029;-80
2022/02/01 05:53:20;;;;;;;8.63;2.72;;;10.30;71.50;;;;;;5027941;28;20029;-80
2022/02/01 05:55:48;;;;;;;11.50;2.78;;;10.30;71.60;;;;;;5027146;28;20481;-80
2022/02/01 05:58:14;;;;;;;13.25;3.60;;;10.20;71.50;;;;;;5015636;28;20502;-79
2022/02/01 06:00:41;;;;;;;13.70;3.25;;;10.30;71.70;;;;;;5037218;28;20415;-80
2022/02/01 06:03:07;;;;;;;14.15;3.47;;;10.20;71.50;;;;;;5015019;28;20109;-79
2022/02/01 06:05:34;;;;;;;12.80;3.65;;;10.30;71.70;;;;;;5027427;28;20041;-80
2022/02/01 06:08:00;;;;;;;15.65;3.17;;;10.20;71.60;;;;;;5027446;28;20116;-79
2022/02/01 06:10:26;;;;;;;10.82;3.47;;;10.30;71.80;;;;;;5027855;28;20120;-78
2022/02/01 06:12:52;;;;;;;11.15;3.05;;;10.30;71.90;;;;;;5038356;28;20025;-80
2022/02/01 06:15:23;;;;;;;12.63;3.35;;;10.30;71.90;;;;;;5027311;28;20441;-80
2022/02/01 06:17:49;;;;;;;13.95;4.07;;;10.20;71.70;;;;;;5027693;28;20128;-80
2022/02/01 06:20:16;;;;;;;9.18;3.00;;;10.30;72.00;;;;;;5028348;28;20497;-80
2022/02/01 06:22:43;;;;;;;11.90;3.40;;;10.20;71.80;;;;;;5028500;28;20389;-80
2022/02/01 06:25:10;;;;;;;10.65;3.45;;;10.30;72.00;;;;;;5027947;28;20029;-80
2022/02/01 06:27:37;;;;;;;11.57;2.97;;;10.30;72.00;;;;;;5016406;28;20037;-80
2022/02/01 06:30:05;;;;;;;12.00;3.65;;;10.30;72.10;;;;;;5021534;28;20036;-76
2022/02/01 06:32:40;;;;;;;11.30;4.35;;;10.30;72.10;;;;;;5038777;28;20040;-80
2022/02/01 06:35:08;;;;;;;11.27;2.40;;;10.20;72.00;;;;;;5026279;28;20047;-75
2022/02/01 06:37:35;;;;;;;11.63;2.78;;;10.20;72.00;;;;;;5027369;28;20032;-76
2022/02/01 06:40:02;;;;;;;10.40;2.42;;;10.30;72.40;;;;;;5009186;28;20025;-78
2022/02/01 06:42:28;;;;;;;14.02;3.28;;;10.30;72.60;;;;;;5027269;28;20022;-76
2022/02/01 06:44:54;;;;;;;10.57;3.15;;;10.40;72.90;;;;;;5036079;28;20037;-75
2022/02/01 06:47:20;;;;;;;17.00;5.22;;;10.50;73.20;;;;;;5028248;28;20056;-76
2022/02/01 06:49:46;;;;;;;16.65;3.67;;;10.50;73.20;;;;;;5005572;28;20024;-76
2022/02/01 06:52:13;;;;;;;18.90;5.85;;;10.60;73.40;;;;;;5013298;28;20412;-78
2022/02/01 06:54:40;;;;;;;16.17;4.72;;;10.60;73.50;;;;;;5030839;28;20060;-76
2022/02/01 06:57:07;;;;;;;12.05;3.35;;;10.70;73.80;;;;;;5015864;28;20037;-77
2022/02/01 06:59:33;;;;;;;14.35;4.15;;;10.70;73.90;;;;;;5032510;28;20025;-76
2022/02/01 07:01:59;;;;;;;12.68;3.38;;;10.80;74.10;;;;;;5032406;28;20116;-76
2022/02/01 07:04:25;;;;;;;16.70;4.35;;;10.80;74.10;;;;;;5031662;28;20116;-77
2022/02/01 07:06:51;;;;;;;15.85;3.67;;;10.90;74.30;;;;;;5029687;28;20484;-76
2022/02/01 07:09:19;;;;;;;15.55;3.40;;;10.90;74.20;;;;;;5026008;28;20025;-78
2022/02/01 07:11:44;;;;;;;10.90;3.25;;;10.90;74.20;;;;;;4994125;28;20069;-78
2022/02/01 07:14:10;;;;;;;12.23;3.20;;;10.90;74.20;;;;;;5025945;28;20026;-77
2022/02/01 07:16:37;;;;;;;12.43;3.47;;;10.90;74.30;;;;;;5027194;28;20076;-79
2022/02/01 07:19:03;;;;;;;13.50;3.13;;;10.90;74.30;;;;;;5015351;28;20117;-81
2022/02/01 07:21:29;;;;;;;14.27;3.83;;;10.80;74.20;;;;;;5003974;28;20037;-79
2022/02/01 07:23:56;;;;;;;10.38;3.05;;;10.90;74.80;;;;;;5020544;28;20037;-77
2022/02/01 07:26:22;;;;;;;11.18;3.47;;;10.90;75.00;;;;;;5007375;28;20366;-81
2022/02/01 07:28:49;;;;;;;10.40;2.90;;;11.00;75.30;;;;;;5018700;28;20473;-76
2022/02/01 07:31:16;;;;;;;11.40;3.42;;;11.00;75.30;;;;;;5029994;28;20034;-78
2022/02/01 07:33:43;;;;;;;12.23;4.38;;;11.00;75.30;;;;;;5030052;28;20057;-79
2022/02/01 07:36:10;;;;;;;11.05;3.58;;;11.00;75.40;;;;;;5011852;28;20040;-79
2022/02/01 07:38:36;;;;;;;12.27;3.40;;;11.00;75.40;;;;;;5013036;28;20025;-77
2022/02/01 07:41:02;;;;;;;12.95;4.20;;;11.00;75.50;;;;;;5012630;28;20040;-78
2022/02/01 07:43:32;;;;;;;11.57;3.58;;;11.00;75.40;;;;;;5012379;28;20041;-77
2022/02/01 07:46:04;;;;;;;12.85;3.75;;;10.90;75.30;;;;;;5032931;28;20432;-77
2022/02/01 07:48:30;;;;;;;10.63;4.00;;;10.90;75.20;;;;;;5042704;28;20524;-78
2022/02/01 07:50:56;;;;;;;11.50;4.30;;;10.90;75.30;;;;;;5028821;28;20025;-78
2022/02/01 07:53:22;;;;;;;10.18;3.63;;;10.90;75.30;;;;;;5041691;28;20151;-79
2022/02/01 07:55:48;;;;;;;10.27;3.70;;;10.90;75.20;;;;;;5048015;28;20052;-77
2022/02/01 07:58:15;;;;;;;9.07;4.22;;;10.90;75.20;;;;;;5045024;28;20029;-77
2022/02/01 08:00:41;;;;;;;11.60;4.38;;;10.90;75.20;;;;;;5039896;28;20119;-78
2022/02/01 08:03:08;;;;;;;16.45;6.25;;;11.00;75.30;;;;;;5049592;28;20032;-78
2022/02/01 08:05:35;;;;;;;14.25;5.05;;;11.00;75.30;;;;;;5031705;28;20063;-77
2022/02/01 08:08:02;;;;;;;15.00;5.50;;;11.00;75.30;;;;;;5028526;28;20036;-78
2022/02/01 08:10:37;;;;;;;12.98;5.50;;;11.00;75.20;;;;;;5012189;28;20471;-80
2022/02/01 08:21:08;;;;;;;18.92;7.63;;;11.00;75.10;;;;;;5011554;28;20209;-80
2022/02/01 08:23:35;;;;;;;15.98;4.57;;;11.00;75.10;;;;;;5029446;28;20028;-78
2022/02/01 08:26:01;;;;;;;14.38;5.28;;;11.00;75.10;;;;;;5029434;28;20097;-79
2022/02/01 08:28:28;;;;;;;17.95;7.55;;;10.90;74.90;;;;;;5029169;28;20397;-79
2022/02/01 08:30:54;;;;;;;16.55;5.65;;;11.00;75.10;;;;;;5029136;28;20040;-78
2022/02/01 08:33:24;;;;;;;17.08;6.03;;;10.90;75.40;;;;;;5029557;28;20374;-78
2022/02/01 08:35:50;;;;;;;15.80;5.95;;;10.90;74.90;;;;;;5011461;28;20030;-80
2022/02/01 08:38:17;;;;;;;18.40;5.65;;;10.90;74.90;;;;;;5015315;28;20447;-79
2022/02/01 08:40:44;;;;;;;18.10;7.38;;;10.90;74.90;;;;;;5048636;28;20033;-79
2022/02/01 08:43:11;;;;;;;10.80;5.20;;;10.90;74.90;;;;;;5048871;28;20025;-79
2022/02/01 08:45:37;;;;;;;11.80;4.68;;;10.90;74.90;;;;;;5048695;28;20028;-79
2022/02/01 08:48:03;;;;;;;14.10;5.60;;;10.90;74.90;;;;;;5046209;28;20209;-79
2022/02/01 08:50:33;;;;;;;16.73;6.05;;;11.00;75.00;;;;;;5029290;28;20111;-80
2022/02/01 08:53:10;;;;;;;12.68;4.63;;;11.00;74.90;;;;;;5028316;28;20033;-79
2022/02/01 08:56:00;;;;;;;13.45;5.05;;;11.00;74.80;;;;;;5029308;28;20260;-79
2022/02/01 08:58:26;;;;;;;12.35;4.82;;;11.10;74.90;;;;;;5010849;28;20052;-74
2022/02/01 09:00:53;;;;;;;11.00;4.30;;;11.10;74.80;;;;;;5028733;28;20075;-80
2022/02/01 09:03:20;;;;;;;12.52;4.70;;;11.10;74.70;;;;;;5027628;28;20465;-84
2022/02/01 09:05:51;;;;;;;12.10;4.35;;;11.20;74.80;;;;;;5010608;28;20521;-84
2022/02/01 09:08:19;;;;;;;12.65;4.25;;;11.10;74.70;;;;;;5027183;28;20131;-83
2022/02/01 09:10:46;;;;;;;12.23;5.00;;;11.20;75.00;;;;;;5026751;28;20056;-84
2022/02/01 09:13:12;;;;;;;14.15;4.50;;;11.20;75.00;;;;;;5027622;28;20056;-82
2022/02/01 09:15:38;;;;;;;13.48;4.55;;;11.30;75.20;;;;;;5010455;28;20025;-82
2022/02/01 09:18:06;;;;;;;9.82;4.20;;;11.30;75.20;;;;;;5029515;28;20412;-79
2022/02/01 09:20:32;;;;;;;12.32;4.28;;;11.40;75.30;;;;;;5047617;28;20019;-78
2022/02/01 09:22:59;;;;;;;9.90;3.92;;;11.30;75.10;;;;;;5047087;28;20025;-80
2022/02/01 09:25:25;;;;;;;13.23;5.38;;;11.40;75.20;;;;;;5030797;28;20571;-80
2022/02/01 09:27:51;;;;;;;10.82;4.32;;;11.50;75.40;;;;;;5030137;28;20057;-84
2022/02/01 09:30:20;;;;;;;8.02;4.10;;;11.50;75.30;;;;;;5029184;28;20030;-85
2022/02/01 09:32:47;;;;;;;11.77;4.88;;;11.60;75.30;;;;;;5029076;28;20034;-86
2022/02/01 09:35:14;;;;;;;12.68;4.07;;;11.70;75.30;;;;;;5029806;28;20025;-87
2022/02/01 09:37:41;;;;;;;10.57;4.55;;;11.80;75.30;;;;;;5011858;28;20041;-87
2022/02/01 09:40:08;;;;;;;7.38;4.78;;;11.90;75.30;;;;;;5011336;28;20076;-85
2022/02/01 09:42:39;;;;;;;8.30;4.22;;;11.90;75.10;;;;;;5026325;28;20051;-86
2022/02/01 09:45:06;;;;;;;8.10;3.80;;;12.00;75.00;;;;;;5011849;28;20049;-82
2022/02/01 09:47:46;;;;;;;10.32;4.28;;;12.10;75.10;;;;;;5045978;28;20037;-83
2022/02/01 09:50:15;;;;;;;11.35;4.38;;;12.20;75.10;;;;;;5026807;28;20029;-82
2022/02/01 09:52:42;;;;;;;7.45;3.67;;;12.30;75.10;;;;;;5028040;28;20030;-83
2022/02/01 09:55:10;;;;;;;7.95;3.85;;;12.30;74.90;;;;;;4994564;28;20021;-83
2022/02/01 09:57:37;;;;;;;9.27;3.80;;;12.40;75.00;;;;;;5028209;28;20029;-83
2022/02/01 10:00:13;;;;;;;11.50;3.97;;;12.50;74.90;;;;;;5045686;28;20029;-81
2022/02/01 10:02:41;;;;;;;10.15;4.75;;;12.60;75.00;;;;;;5030691;28;20040;-84
2022/02/01 10:05:12;;;;;;;9.25;4.18;;;12.60;75.30;;;;;;5049619;28;20566;-87
2022/02/01 10:07:52;;;;;;;12.05;4.35;;;12.70;74.80;;;;;;5049771;28;20032;-88
2022/02/01 10:10:28;;;;;;;10.43;4.47;;;12.80;74.80;;;;;;5031014;28;20025;-84
2022/02/01 10:13:13;;;;;;;8.30;3.58;;;12.80;74.70;;;;;;4996432;28;20033;-87
2022/02/01 10:15:53;;;;;;;8.73;4.50;;;12.90;74.80;;;;;;4996064;28;20059;-85
2022/02/01 10:18:40;;;;;;;14.50;4.63;;;12.90;74.70;;;;;;5011102;28;20076;-87
2022/02/01 10:21:11;;;;;;;8.20;4.07;;;12.90;74.60;;;;;;5029727;28;20029;-85
2022/02/01 10:23:41;;;;;;;9.40;3.88;;;13.00;74.70;;;;;;4994549;28;20413;-84
2022/02/01 10:26:22;;;;;;;11.85;4.63;;;13.00;74.60;;;;;;5029360;28;20110;-88
2022/02/01 10:29:07;;;;;;;8.40;4.22;;;13.00;74.60;;;;;;5018128;28;20120;-86
2022/02/01 10:31:40;;;;;;;8.65;4.88;;;13.00;74.50;;;;;;5029998;28;20468;-84
2022/02/01 10:37:24;;;;;;;7.72;4.25;;;13.00;74.40;;;;;;5047632;28;20029;-82
2022/02/01 10:39:58;;;;;;;10.38;4.50;;;13.10;74.60;;;;;;5047516;28;20033;-83
2022/02/01 10:42:26;;;;;;;9.85;4.10;;;13.00;74.40;;;;;;5047821;28;20339;-82
2022/02/01 10:44:58;;;;;;;10.75;5.32;;;13.10;74.60;;;;;;5047946;28;20029;-85
2022/02/01 10:47:36;;;;;;;12.30;4.60;;;13.10;74.50;;;;;;5048249;28;20106;-86
2022/02/01 10:50:12;;;;;;;12.45;5.55;;;13.10;74.40;;;;;;5031066;28;20484;-85
2022/02/01 10:52:50;;;;;;;12.48;5.75;;;13.20;74.60;;;;;;5010387;28;20035;-80
2022/02/01 10:55:19;;;;;;;16.52;6.03;;;13.20;74.50;;;;;;4992796;28;20397;-82
2022/02/01 10:57:45;;;;;;;11.63;4.55;;;13.20;74.60;;;;;;5008014;28;20025;-84
2022/02/01 11:00:17;;;;;;;11.90;4.97;;;13.30;74.80;;;;;;5031943;28;20367;-86
2022/02/01 11:02:46;;;;;;;14.73;5.82;;;13.50;75.00;;;;;;5030707;28;20029;-85
2022/02/01 11:05:17;;;;;;;12.63;5.20;;;13.60;74.90;;;;;;5059954;28;20505;-86
2022/02/01 11:07:48;;;;;;;16.88;7.28;;;13.70;74.80;;;;;;5044639;28;20051;-83
2022/02/01 11:10:14;;;;;;;15.48;6.47;;;13.80;74.70;;;;;;5027977;28;20032;-89
2022/02/01 11:12:40;;;;;;;15.40;6.38;;;13.90;74.70;;;;;;5027853;28;20037;-89
2022/02/01 11:15:21;;;;;;;13.90;7.22;;;13.90;74.50;;;;;;5010528;28;20029;-91
2022/02/01 11:17:50;;;;;;;10.27;5.93;;;14.00;74.50;;;;;;4994195;28;20488;-87
2022/02/01 11:20:28;;;;;;;12.05;5.68;;;14.10;74.50;;;;;;5011339;28;20103;-90
2022/02/01 11:23:06;;;;;;;10.77;5.40;;;14.20;74.50;;;;;;5011541;28;20485;-90
2022/02/01 11:25:44;;;;;;;15.35;6.03;;;14.20;74.40;;;;;;5028567;28;20042;-90
2022/02/01 11:28:21;;;;;;;17.58;9.35;;;14.30;74.40;;;;;;5028635;28;20461;-89
2022/02/01 11:30:52;;;;;;;14.45;6.75;;;14.40;74.50;;;;;;5012629;28;20346;-90
2022/02/01 11:33:19;;;;;;;10.80;6.10;;;14.40;74.30;;;;;;5003781;28;20029;-90
2022/02/01 11:35:57;;;;;;;14.60;6.47;;;14.50;74.30;;;;;;5019956;28;20120;-92
2022/02/01 11:38:23;;;;;;;9.90;6.57;;;14.50;74.10;;;;;;5037713;28;20327;-91
2022/02/01 11:41:09;;;;;;;11.40;5.95;;;14.60;74.20;;;;;;5008328;28;20267;-91
2022/02/01 11:43:35;;;;;;;10.57;6.18;;;14.60;74.00;;;;;;5022190;28;20036;-88
2022/02/01 11:46:06;;;;;;;12.45;5.90;;;14.70;74.10;;;;;;5024559;28;20057;-91
2022/02/01 11:48:36;;;;;;;10.20;4.80;;;14.70;73.90;;;;;;5021606;28;20037;-91
2022/02/01 11:51:07;;;;;;;10.20;5.57;;;14.70;73.90;;;;;;5043625;28;20043;-89
2022/02/01 11:53:33;;;;;;;9.98;5.65;;;14.60;73.70;;;;;;5039445;28;20488;-89
2022/02/01 11:56:01;;;;;;;12.27;6.00;;;14.60;73.80;;;;;;5033554;28;20067;-88
2022/02/01 11:58:31;;;;;;;9.35;5.43;;;14.60;73.80;;;;;;5051412;28;20025;-87
2022/02/01 12:00:59;;;;;;;12.23;6.10;;;14.50;73.70;;;;;;5050527;28;20049;-87
2022/02/01 12:03:29;;;;;;;8.75;6.28;;;14.50;73.80;;;;;;5032467;28;20032;-86
2022/02/01 12:06:05;;;;;;;9.23;5.68;;;14.50;73.80;;;;;;5032931;28;20052;-85
2022/02/01 12:08:33;;;;;;;9.05;4.50;;;14.50;73.90;;;;;;5006894;28;20032;-83
2022/02/01 12:11:02;;;;;;;8.18;4.35;;;14.50;73.90;;;;;;5031905;28;20042;-88
2022/02/01 12:13:30;;;;;;;8.43;4.60;;;14.50;74.50;;;;;;5049102;28;20029;-89
2022/02/01 12:16:02;;;;;;;8.48;5.55;;;14.60;74.10;;;;;;5035358;28;20067;-87
2022/02/01 12:18:46;;;;;;;12.50;5.43;;;14.70;74.10;;;;;;5048143;28;20125;-83
2022/02/01 12:21:35;;;;;;;7.53;4.25;;;14.70;73.90;;;;;;5035939;28;20075;-83
2022/02/01 12:24:04;;;;;;;7.32;4.45;;;14.70;73.80;;;;;;5050619;28;20056;-84
2022/02/01 12:26:37;;;;;;;7.38;3.95;;;14.80;73.90;;;;;;5049121;28;20040;-85
2022/02/01 12:29:05;;;;;;;11.52;5.13;;;14.80;73.90;;;;;;5024484;28;20030;-84
2022/02/01 12:31:37;;;;;;;6.25;4.18;;;14.80;73.80;;;;;;5030239;28;20100;-85
2022/02/01 12:34:04;;;;;;;10.05;4.65;;;14.70;74.20;;;;;;5012253;28;20067;-83
2022/02/01 12:36:38;;;;;;;10.45;4.60;;;14.70;73.70;;;;;;5029802;28;20440;-86
2022/02/01 12:39:32;;;;;;;8.95;4.15;;;14.70;73.60;;;;;;5019679;28;20127;-88
2022/02/01 12:42:02;;;;;;;10.15;4.25;;;14.70;73.60;;;;;;5050157;28;20040;-85
2022/02/01 12:47:03;;;;;;;7.07;4.15;;;14.70;73.60;;;;;;5032474;28;20083;-91
2022/02/01 12:49:37;;;;;;;9.52;4.25;;;14.70;73.60;;;;;;5033053;28;20504;-91
2022/02/01 12:52:20;;;;;;;9.35;4.43;;;14.70;73.60;;;;;;5018835;28;20037;-91
2022/02/01 12:54:46;;;;;;;9.75;4.38;;;14.70;73.60;;;;;;5016185;28;20055;-91
2022/02/01 12:57:13;;;;;;;12.88;4.85;;;14.60;73.50;;;;;;5049907;28;20117;-87
2022/02/01 12:59:43;;;;;;;11.70;4.80;;;14.60;73.50;;;;;;5050018;28;20068;-85
2022/02/01 13:02:16;;;;;;;11.88;5.40;;;14.60;73.50;;;;;;5031887;28;20048;-82
2022/02/01 13:04:42;;;;;;;10.05;4.10;;;14.60;73.50;;;;;;5037659;28;20025;-84
2022/02/01 13:07:27;;;;;;;12.43;3.92;;;14.60;73.50;;;;;;5055911;28;20036;-84
2022/02/01 15:14:43;;;;;;;9.65;2.97;;;15.50;72.00;;;;;;5030983;28;20025;-87
2022/02/01 15:17:14;;;;;;;10.52;2.55;;;15.40;71.80;;;;;;5031742;28;20022;-89
2022/02/01 15:19:41;;;;;;;9.07;2.67;;;15.40;71.90;;;;;;5013489;28;20661;-89
2022/02/01 15:22:07;;;;;;;10.88;2.70;;;15.30;71.80;;;;;;5035248;28;20072;-90
2022/02/01 15:24:33;;;;;;;12.00;2.97;;;15.30;71.80;;;;;;5042485;28;20060;-86
2022/02/01 15:26:59;;;;;;;6.70;2.35;;;15.30;71.90;;;;;;5029858;28;20124;-86
2022/02/01 15:29:25;;;;;;;13.80;3.05;;;15.20;71.80;;;;;;5030035;28;20048;-87
2022/02/01 15:31:51;;;;;;;8.15;2.72;;;15.20;71.80;;;;;;5042276;28;20033;-86
2022/02/01 15:34:18;;;;;;;8.45;3.53;;;15.20;71.90;;;;;;5051244;28;20175;-86
2022/02/01 15:36:44;;;;;;;8.40;2.67;;;15.20;71.90;;;;;;5050668;28;20037;-86
2022/02/01 15:58:09;;;;;;;10.90;2.67;;;15.00;72.10;;;;;;5050934;28;20025;-88
2022/02/01 16:00:37;;;;;;;7.57;2.63;;;14.90;72.00;;;;;;5052263;28;20036;-88
2022/02/01 16:03:10;;;;;;;13.38;3.42;;;14.90;72.00;;;;;;5050427;28;20029;-88
2022/02/01 16:05:36;;;;;;;12.50;3.88;;;14.80;71.90;;;;;;5013115;28;20352;-88
2022/02/01 16:08:03;;;;;;;11.80;2.65;;;14.80;72.00;;;;;;5049137;28;20300;-87
2022/02/01 16:13:03;;;;;;;11.77;3.22;;;14.80;72.20;;;;;;5031040;28;20025;-86
2022/02/01 16:15:29;;;;;;;9.68;2.78;;;14.70;72.10;;;;;;5043320;28;20033;-86
2022/02/01 16:17:55;;;;;;;10.70;4.05;;;14.70;72.10;;;;;;5049474;28;20091;-86
2022/02/01 16:20:21;;;;;;;13.50;4.03;;;14.60;72.10;;;;;;5050483;28;20496;-90
2022/02/01 16:22:47;;;;;;;8.70;2.63;;;14.60;72.20;;;;;;5050438;28;20025;-84
2022/02/01 16:25:13;;;;;;;8.38;2.83;;;14.60;72.20;;;;;;5031898;28;20041;-89
2022/02/01 16:27:40;;;;;;;7.43;2.35;;;14.60;72.30;;;;;;5031819;28;20120;-88
2022/02/01 16:30:28;;;;;;;8.85;3.00;;;14.50;72.20;;;;;;5050198;28;20447;-87
2022/02/01 16:32:54;;;;;;;14.57;3.63;;;14.50;72.80;;;;;;5050750;28;20068;-89
2022/02/01 16:35:21;;;;;;;10.75;2.47;;;14.50;72.40;;;;;;5053421;28;20048;-88
2022/02/01 16:37:47;;;;;;;9.23;3.05;;;14.40;72.20;;;;;;5050605;28;20029;-87
2022/02/01 16:40:13;;;;;;;9.73;3.05;;;14.40;72.30;;;;;;5016419;28;20112;-83
2022/02/01 16:42:44;;;;;;;8.98;3.42;;;14.40;72.40;;;;;;5030273;28;20165;-88
2022/02/01 16:45:10;;;;;;;9.07;3.33;;;14.30;72.20;;;;;;4996642;28;20053;-87
2022/02/01 16:47:39;;;;;;;13.40;3.75;;;14.30;72.30;;;;;;5030236;28;20452;-84
2022/02/01 16:50:11;;;;;;;9.13;3.25;;;14.20;72.20;;;;;;5016302;28;20136;-85
2022/02/01 16:52:45;;;;;;;8.75;2.97;;;14.20;72.30;;;;;;5035726;28;20448;-86